sensor_id;sensor_type;location;lat;lon;timestamp;P1;durP1;ratioP1;P2;durP2;ratioP2
47167;SDS011;32931;47.778;17.806;2022-11-20T00:00:52;69.70;;;40.13;;
47167;SDS011;32931;47.778;17.806;2022-11-20T00:03:19;62.67;;;38.65;;
47167;SDS011;32931;47.778;17.806;2022-11-20T00:05:45;64.50;;;37.75;;
47167;SDS011;32931;47.778;17.806;2022-11-20T00:08:11;64.68;;;38.28;;
47167;SDS011;32931;47.778;17.806;2022-11-20T00:10:41;70.25;;;40.45;;
47167;SDS011;32931;47.778;17.806;2022-11-20T00:13:07;57.63;;;37.97;;
47167;SDS011;32931;47.778;17.806;2022-11-20T00:15:33;59.72;;;37.58;;
47167;SDS011;32931;47.778;17.806;2022-11-20T00:17:59;62.15;;;37.30;;
47167;SDS011;32931;47.778;17.806;2022-11-20T00:20:26;62.70;;;38.42;;
47167;SDS011;32931;47.778;17.806;2022-11-20T00:22:52;61.53;;;36.95;;
47167;SDS011;32931;47.778;17.806;2022-11-20T00:25:18;62.60;;;36.05;;
47167;SDS011;32931;47.778;17.806;2022-11-20T00:27:44;61.70;;;37.08;;
47167;SDS011;32931;47.778;17.806;2022-11-20T00:30:10;62.67;;;38.38;;
47167;SDS011;32931;47.778;17.806;2022-11-20T00:32:37;61.40;;;38.58;;
47167;SDS011;32931;47.778;17.806;2022-11-20T00:35:03;65.05;;;37.50;;
47167;SDS011;32931;47.778;17.806;2022-11-20T00:37:30;68.22;;;41.88;;
47167;SDS011;32931;47.778;17.806;2022-11-20T00:39:56;71.13;;;38.63;;
47167;SDS011;32931;47.778;17.806;2022-11-20T00:42:22;64.78;;;39.05;;
47167;SDS011;32931;47.778;17.806;2022-11-20T00:44:48;58.83;;;37.67;;
47167;SDS011;32931;47.778;17.806;2022-11-20T00:47:14;60.45;;;37.50;;
47167;SDS011;32931;47.778;17.806;2022-11-20T00:49:40;57.78;;;37.35;;
47167;SDS011;32931;47.778;17.806;2022-11-20T00:52:06;61.15;;;37.17;;
47167;SDS011;32931;47.778;17.806;2022-11-20T00:54:32;57.50;;;36.45;;
47167;SDS011;32931;47.778;17.806;2022-11-20T00:56:59;59.22;;;35.92;;
47167;SDS011;32931;47.778;17.806;2022-11-20T00:59:25;58.78;;;37.08;;
47167;SDS011;32931;47.778;17.806;2022-11-20T01:01:51;62.58;;;37.47;;
47167;SDS011;32931;47.778;17.806;2022-11-20T01:04:17;56.30;;;35.15;;
47167;SDS011;32931;47.778;17.806;2022-11-20T01:06:43;59.47;;;36.45;;
47167;SDS011;32931;47.778;17.806;2022-11-20T01:09:10;64.53;;;36.75;;
47167;SDS011;32931;47.778;17.806;2022-11-20T01:11:39;54.72;;;34.75;;
47167;SDS011;32931;47.778;17.806;2022-11-20T01:14:07;60.10;;;35.53;;
47167;SDS011;32931;47.778;17.806;2022-11-20T01:16:37;58.83;;;36.03;;
47167;SDS011;32931;47.778;17.806;2022-11-20T01:19:10;57.75;;;34.80;;
47167;SDS011;32931;47.778;17.806;2022-11-20T01:21:40;61.47;;;35.88;;
47167;SDS011;32931;47.778;17.806;2022-11-20T01:24:10;55.58;;;35.30;;
47167;SDS011;32931;47.778;17.806;2022-11-20T01:26:39;55.63;;;35.05;;
47167;SDS011;32931;47.778;17.806;2022-11-20T01:29:08;56.92;;;34.42;;
47167;SDS011;32931;47.778;17.806;2022-11-20T01:31:39;58.28;;;35.30;;
47167;SDS011;32931;47.778;17.806;2022-11-20T01:34:06;58.80;;;35.33;;
47167;SDS011;32931;47.778;17.806;2022-11-20T01:36:35;55.35;;;32.35;;
47167;SDS011;32931;47.778;17.806;2022-11-20T01:41:57;53.03;;;31.50;;
47167;SDS011;32931;47.778;17.806;2022-11-20T01:44:47;51.53;;;32.40;;
47167;SDS011;32931;47.778;17.806;2022-11-20T01:47:15;51.33;;;33.10;;
47167;SDS011;32931;47.778;17.806;2022-11-20T01:49:59;52.67;;;32.88;;
47167;SDS011;32931;47.778;17.806;2022-11-20T01:52:45;54.67;;;33.78;;
47167;SDS011;32931;47.778;17.806;2022-11-20T01:55:17;51.95;;;33.70;;
47167;SDS011;32931;47.778;17.806;2022-11-20T01:57:45;51.67;;;32.50;;
47167;SDS011;32931;47.778;17.806;2022-11-20T02:00:14;53.42;;;32.83;;
47167;SDS011;32931;47.778;17.806;2022-11-20T02:02:43;52.85;;;33.10;;
47167;SDS011;32931;47.778;17.806;2022-11-20T02:08:02;61.30;;;33.47;;
47167;SDS011;32931;47.778;17.806;2022-11-20T02:10:30;52.00;;;32.03;;
47167;SDS011;32931;47.778;17.806;2022-11-20T02:12:57;51.08;;;32.17;;
47167;SDS011;32931;47.778;17.806;2022-11-20T02:15:42;51.83;;;31.88;;
47167;SDS011;32931;47.778;17.806;2022-11-20T02:18:09;52.88;;;32.92;;
47167;SDS011;32931;47.778;17.806;2022-11-20T02:20:37;56.00;;;31.63;;
47167;SDS011;32931;47.778;17.806;2022-11-20T02:25:38;53.42;;;33.13;;
47167;SDS011;32931;47.778;17.806;2022-11-20T02:28:06;50.17;;;31.05;;
47167;SDS011;32931;47.778;17.806;2022-11-20T02:30:32;52.95;;;32.20;;
47167;SDS011;32931;47.778;17.806;2022-11-20T02:32:58;47.38;;;30.58;;
47167;SDS011;32931;47.778;17.806;2022-11-20T02:37:52;46.58;;;29.52;;
47167;SDS011;32931;47.778;17.806;2022-11-20T02:40:20;50.03;;;30.02;;
47167;SDS011;32931;47.778;17.806;2022-11-20T02:42:47;50.88;;;31.80;;
47167;SDS011;32931;47.778;17.806;2022-11-20T02:45:13;48.47;;;31.83;;
47167;SDS011;32931;47.778;17.806;2022-11-20T02:47:39;45.08;;;29.75;;
47167;SDS011;32931;47.778;17.806;2022-11-20T02:50:06;50.22;;;31.60;;
47167;SDS011;32931;47.778;17.806;2022-11-20T02:52:32;48.97;;;31.38;;
47167;SDS011;32931;47.778;17.806;2022-11-20T02:54:58;51.83;;;29.98;;
47167;SDS011;32931;47.778;17.806;2022-11-20T02:57:24;46.60;;;28.73;;
47167;SDS011;32931;47.778;17.806;2022-11-20T02:59:50;42.58;;;27.90;;
47167;SDS011;32931;47.778;17.806;2022-11-20T03:02:17;48.88;;;29.80;;
47167;SDS011;32931;47.778;17.806;2022-11-20T03:04:43;45.95;;;29.85;;
47167;SDS011;32931;47.778;17.806;2022-11-20T03:07:09;44.03;;;28.80;;
47167;SDS011;32931;47.778;17.806;2022-11-20T03:09:35;45.92;;;30.10;;
47167;SDS011;32931;47.778;17.806;2022-11-20T03:12:01;47.03;;;29.83;;
47167;SDS011;32931;47.778;17.806;2022-11-20T03:14:27;47.17;;;29.63;;
47167;SDS011;32931;47.778;17.806;2022-11-20T03:16:53;44.95;;;29.73;;
47167;SDS011;32931;47.778;17.806;2022-11-20T03:19:21;47.38;;;30.17;;
47167;SDS011;32931;47.778;17.806;2022-11-20T03:21:47;47.60;;;28.30;;
47167;SDS011;32931;47.778;17.806;2022-11-20T03:24:14;45.78;;;29.23;;
47167;SDS011;32931;47.778;17.806;2022-11-20T03:26:40;44.67;;;28.77;;
47167;SDS011;32931;47.778;17.806;2022-11-20T03:29:07;43.55;;;27.73;;
47167;SDS011;32931;47.778;17.806;2022-11-20T03:31:34;44.67;;;29.17;;
47167;SDS011;32931;47.778;17.806;2022-11-20T03:34:03;44.63;;;28.65;;
47167;SDS011;32931;47.778;17.806;2022-11-20T03:36:29;45.78;;;29.33;;
47167;SDS011;32931;47.778;17.806;2022-11-20T03:38:56;46.28;;;28.75;;
47167;SDS011;32931;47.778;17.806;2022-11-20T03:41:23;43.92;;;28.40;;
47167;SDS011;32931;47.778;17.806;2022-11-20T03:43:57;41.10;;;26.13;;
47167;SDS011;32931;47.778;17.806;2022-11-20T03:46:25;45.38;;;28.40;;
47167;SDS011;32931;47.778;17.806;2022-11-20T03:48:52;43.20;;;28.13;;
47167;SDS011;32931;47.778;17.806;2022-11-20T03:51:23;46.35;;;29.08;;
47167;SDS011;32931;47.778;17.806;2022-11-20T03:53:51;44.28;;;27.85;;
47167;SDS011;32931;47.778;17.806;2022-11-20T03:56:19;46.38;;;29.20;;
47167;SDS011;32931;47.778;17.806;2022-11-20T03:58:49;43.33;;;27.50;;
47167;SDS011;32931;47.778;17.806;2022-11-20T04:01:16;45.05;;;28.77;;
47167;SDS011;32931;47.778;17.806;2022-11-20T04:03:47;44.08;;;28.95;;
47167;SDS011;32931;47.778;17.806;2022-11-20T04:06:17;41.42;;;27.25;;
47167;SDS011;32931;47.778;17.806;2022-11-20T04:08:45;43.22;;;27.70;;
47167;SDS011;32931;47.778;17.806;2022-11-20T04:11:16;43.90;;;27.30;;
47167;SDS011;32931;47.778;17.806;2022-11-20T04:13:48;43.20;;;27.52;;
47167;SDS011;32931;47.778;17.806;2022-11-20T04:16:15;40.42;;;26.73;;
47167;SDS011;32931;47.778;17.806;2022-11-20T04:18:42;42.80;;;27.38;;
47167;SDS011;32931;47.778;17.806;2022-11-20T04:21:08;41.47;;;27.05;;
47167;SDS011;32931;47.778;17.806;2022-11-20T04:23:35;42.33;;;28.50;;
47167;SDS011;32931;47.778;17.806;2022-11-20T04:26:04;49.25;;;30.60;;
47167;SDS011;32931;47.778;17.806;2022-11-20T04:28:32;49.22;;;30.20;;
47167;SDS011;32931;47.778;17.806;2022-11-20T04:31:02;50.08;;;31.00;;
47167;SDS011;32931;47.778;17.806;2022-11-20T04:33:29;49.17;;;31.33;;
47167;SDS011;32931;47.778;17.806;2022-11-20T04:35:55;49.75;;;31.48;;
47167;SDS011;32931;47.778;17.806;2022-11-20T04:38:31;51.92;;;31.08;;
47167;SDS011;32931;47.778;17.806;2022-11-20T04:40:59;53.25;;;33.25;;
47167;SDS011;32931;47.778;17.806;2022-11-20T04:43:26;51.90;;;33.63;;
47167;SDS011;32931;47.778;17.806;2022-11-20T04:45:53;58.03;;;34.58;;
47167;SDS011;32931;47.778;17.806;2022-11-20T04:48:20;58.78;;;35.65;;
47167;SDS011;32931;47.778;17.806;2022-11-20T04:50:47;53.17;;;33.45;;
47167;SDS011;32931;47.778;17.806;2022-11-20T04:53:13;62.33;;;36.97;;
47167;SDS011;32931;47.778;17.806;2022-11-20T04:55:39;66.40;;;37.17;;
47167;SDS011;32931;47.778;17.806;2022-11-20T04:58:06;58.95;;;35.78;;
47167;SDS011;32931;47.778;17.806;2022-11-20T05:00:32;59.38;;;36.33;;
47167;SDS011;32931;47.778;17.806;2022-11-20T05:02:59;58.78;;;35.13;;
47167;SDS011;32931;47.778;17.806;2022-11-20T05:05:25;59.97;;;36.78;;
47167;SDS011;32931;47.778;17.806;2022-11-20T05:07:51;60.53;;;37.30;;
47167;SDS011;32931;47.778;17.806;2022-11-20T05:10:17;60.22;;;36.75;;
47167;SDS011;32931;47.778;17.806;2022-11-20T05:12:43;61.42;;;36.58;;
47167;SDS011;32931;47.778;17.806;2022-11-20T05:15:09;61.50;;;36.65;;
47167;SDS011;32931;47.778;17.806;2022-11-20T05:17:36;58.20;;;35.78;;
47167;SDS011;32931;47.778;17.806;2022-11-20T05:20:02;63.45;;;37.88;;
47167;SDS011;32931;47.778;17.806;2022-11-20T05:22:28;54.97;;;35.38;;
47167;SDS011;32931;47.778;17.806;2022-11-20T05:24:54;55.35;;;35.08;;
47167;SDS011;32931;47.778;17.806;2022-11-20T05:27:20;59.45;;;36.22;;
47167;SDS011;32931;47.778;17.806;2022-11-20T05:29:46;56.75;;;34.00;;
47167;SDS011;32931;47.778;17.806;2022-11-20T05:32:12;59.65;;;36.63;;
47167;SDS011;32931;47.778;17.806;2022-11-20T05:34:39;59.38;;;36.47;;
47167;SDS011;32931;47.778;17.806;2022-11-20T05:37:05;61.15;;;36.90;;
47167;SDS011;32931;47.778;17.806;2022-11-20T05:39:31;60.80;;;37.03;;
47167;SDS011;32931;47.778;17.806;2022-11-20T05:41:57;65.88;;;35.70;;
47167;SDS011;32931;47.778;17.806;2022-11-20T05:44:42;58.97;;;36.65;;
47167;SDS011;32931;47.778;17.806;2022-11-20T05:47:08;59.95;;;36.70;;
47167;SDS011;32931;47.778;17.806;2022-11-20T05:49:34;59.15;;;36.53;;
47167;SDS011;32931;47.778;17.806;2022-11-20T05:52:00;59.65;;;36.88;;
47167;SDS011;32931;47.778;17.806;2022-11-20T05:54:26;59.40;;;36.08;;
47167;SDS011;32931;47.778;17.806;2022-11-20T05:56:52;61.20;;;36.15;;
47167;SDS011;32931;47.778;17.806;2022-11-20T05:59:18;61.30;;;36.08;;
47167;SDS011;32931;47.778;17.806;2022-11-20T06:01:44;56.05;;;35.17;;
47167;SDS011;32931;47.778;17.806;2022-11-20T06:04:10;62.38;;;38.05;;
47167;SDS011;32931;47.778;17.806;2022-11-20T06:06:37;60.63;;;37.15;;
47167;SDS011;32931;47.778;17.806;2022-11-20T06:09:03;56.17;;;35.97;;
47167;SDS011;32931;47.778;17.806;2022-11-20T06:11:29;61.60;;;36.42;;
47167;SDS011;32931;47.778;17.806;2022-11-20T06:13:55;67.30;;;38.08;;
47167;SDS011;32931;47.778;17.806;2022-11-20T06:16:21;59.22;;;35.72;;
47167;SDS011;32931;47.778;17.806;2022-11-20T06:18:47;59.55;;;35.25;;
47167;SDS011;32931;47.778;17.806;2022-11-20T06:23:41;58.28;;;35.58;;
47167;SDS011;32931;47.778;17.806;2022-11-20T06:26:08;54.92;;;34.97;;
47167;SDS011;32931;47.778;17.806;2022-11-20T06:28:36;59.13;;;36.63;;
47167;SDS011;32931;47.778;17.806;2022-11-20T06:31:02;55.67;;;35.28;;
47167;SDS011;32931;47.778;17.806;2022-11-20T06:33:28;56.08;;;33.95;;
47167;SDS011;32931;47.778;17.806;2022-11-20T06:35:56;57.72;;;35.97;;
47167;SDS011;32931;47.778;17.806;2022-11-20T06:38:25;59.25;;;35.92;;
47167;SDS011;32931;47.778;17.806;2022-11-20T06:40:53;60.10;;;36.00;;
47167;SDS011;32931;47.778;17.806;2022-11-20T06:43:19;56.25;;;35.47;;
47167;SDS011;32931;47.778;17.806;2022-11-20T06:45:45;59.53;;;36.22;;
47167;SDS011;32931;47.778;17.806;2022-11-20T06:48:12;60.50;;;35.38;;
47167;SDS011;32931;47.778;17.806;2022-11-20T06:50:38;59.15;;;35.28;;
47167;SDS011;32931;47.778;17.806;2022-11-20T06:53:04;58.17;;;36.03;;
47167;SDS011;32931;47.778;17.806;2022-11-20T06:55:31;57.90;;;35.25;;
47167;SDS011;32931;47.778;17.806;2022-11-20T06:57:57;57.17;;;34.75;;
47167;SDS011;32931;47.778;17.806;2022-11-20T07:00:23;57.00;;;34.63;;
47167;SDS011;32931;47.778;17.806;2022-11-20T07:02:50;64.88;;;37.53;;
47167;SDS011;32931;47.778;17.806;2022-11-20T07:05:16;59.33;;;36.42;;
47167;SDS011;32931;47.778;17.806;2022-11-20T07:07:43;61.83;;;37.08;;
47167;SDS011;32931;47.778;17.806;2022-11-20T07:10:09;59.42;;;36.13;;
47167;SDS011;32931;47.778;17.806;2022-11-20T07:12:35;57.28;;;36.83;;
47167;SDS011;32931;47.778;17.806;2022-11-20T07:15:01;59.78;;;35.90;;
47167;SDS011;32931;47.778;17.806;2022-11-20T07:17:28;55.60;;;36.00;;
47167;SDS011;32931;47.778;17.806;2022-11-20T07:19:54;62.53;;;36.67;;
47167;SDS011;32931;47.778;17.806;2022-11-20T07:22:20;62.95;;;37.13;;
47167;SDS011;32931;47.778;17.806;2022-11-20T07:24:47;60.88;;;36.90;;
47167;SDS011;32931;47.778;17.806;2022-11-20T07:27:13;59.55;;;37.30;;
47167;SDS011;32931;47.778;17.806;2022-11-20T07:29:40;56.72;;;35.53;;
47167;SDS011;32931;47.778;17.806;2022-11-20T07:32:06;59.95;;;35.85;;
47167;SDS011;32931;47.778;17.806;2022-11-20T07:34:32;61.80;;;37.83;;
47167;SDS011;32931;47.778;17.806;2022-11-20T07:36:58;61.33;;;37.17;;
47167;SDS011;32931;47.778;17.806;2022-11-20T07:39:24;57.63;;;34.47;;
47167;SDS011;32931;47.778;17.806;2022-11-20T07:41:50;60.78;;;37.85;;
47167;SDS011;32931;47.778;17.806;2022-11-20T07:44:16;56.47;;;36.42;;
47167;SDS011;32931;47.778;17.806;2022-11-20T07:46:43;57.85;;;35.97;;
47167;SDS011;32931;47.778;17.806;2022-11-20T07:49:09;57.75;;;36.15;;
47167;SDS011;32931;47.778;17.806;2022-11-20T07:51:35;60.00;;;36.00;;
47167;SDS011;32931;47.778;17.806;2022-11-20T07:54:01;54.22;;;34.92;;
47167;SDS011;32931;47.778;17.806;2022-11-20T07:56:27;61.80;;;36.90;;
47167;SDS011;32931;47.778;17.806;2022-11-20T07:58:53;60.10;;;36.92;;
47167;SDS011;32931;47.778;17.806;2022-11-20T08:01:19;55.53;;;35.22;;
47167;SDS011;32931;47.778;17.806;2022-11-20T08:03:46;57.20;;;36.13;;
47167;SDS011;32931;47.778;17.806;2022-11-20T08:06:12;57.50;;;34.72;;
47167;SDS011;32931;47.778;17.806;2022-11-20T08:08:38;57.95;;;36.70;;
47167;SDS011;32931;47.778;17.806;2022-11-20T08:11:05;60.17;;;37.42;;
47167;SDS011;32931;47.778;17.806;2022-11-20T08:13:49;61.83;;;37.28;;
47167;SDS011;32931;47.778;17.806;2022-11-20T08:16:34;57.40;;;36.17;;
47167;SDS011;32931;47.778;17.806;2022-11-20T08:19:00;55.97;;;35.63;;
47167;SDS011;32931;47.778;17.806;2022-11-20T08:21:26;60.63;;;36.47;;
47167;SDS011;32931;47.778;17.806;2022-11-20T08:23:53;60.00;;;36.92;;
47167;SDS011;32931;47.778;17.806;2022-11-20T08:26:20;58.95;;;36.47;;
47167;SDS011;32931;47.778;17.806;2022-11-20T08:28:53;62.05;;;36.72;;
47167;SDS011;32931;47.778;17.806;2022-11-20T08:31:21;62.67;;;37.25;;
47167;SDS011;32931;47.778;17.806;2022-11-20T08:33:48;58.92;;;35.25;;
47167;SDS011;32931;47.778;17.806;2022-11-20T08:36:15;60.13;;;37.05;;
47167;SDS011;32931;47.778;17.806;2022-11-20T08:38:41;60.60;;;37.50;;
47167;SDS011;32931;47.778;17.806;2022-11-20T08:41:11;60.28;;;36.58;;
47167;SDS011;32931;47.778;17.806;2022-11-20T08:43:51;66.85;;;38.40;;
47167;SDS011;32931;47.778;17.806;2022-11-20T08:46:20;63.75;;;37.25;;
47167;SDS011;32931;47.778;17.806;2022-11-20T08:48:46;60.30;;;37.30;;
47167;SDS011;32931;47.778;17.806;2022-11-20T08:51:13;58.50;;;37.05;;
47167;SDS011;32931;47.778;17.806;2022-11-20T08:53:39;59.50;;;36.58;;
47167;SDS011;32931;47.778;17.806;2022-11-20T08:56:06;66.05;;;38.67;;
47167;SDS011;32931;47.778;17.806;2022-11-20T08:58:32;60.47;;;37.85;;
47167;SDS011;32931;47.778;17.806;2022-11-20T09:00:58;60.55;;;36.90;;
47167;SDS011;32931;47.778;17.806;2022-11-20T09:03:25;58.00;;;36.92;;
47167;SDS011;32931;47.778;17.806;2022-11-20T09:06:02;58.40;;;35.80;;
47167;SDS011;32931;47.778;17.806;2022-11-20T09:08:30;60.85;;;37.53;;
47167;SDS011;32931;47.778;17.806;2022-11-20T09:10:57;117.38;;;66.65;;
47167;SDS011;32931;47.778;17.806;2022-11-20T09:13:24;72.07;;;41.95;;
47167;SDS011;32931;47.778;17.806;2022-11-20T09:18:22;67.80;;;40.38;;
47167;SDS011;32931;47.778;17.806;2022-11-20T09:20:49;65.53;;;39.42;;
47167;SDS011;32931;47.778;17.806;2022-11-20T09:23:15;66.50;;;40.80;;
47167;SDS011;32931;47.778;17.806;2022-11-20T09:25:42;60.53;;;36.28;;
47167;SDS011;32931;47.778;17.806;2022-11-20T09:28:08;57.40;;;37.38;;
47167;SDS011;32931;47.778;17.806;2022-11-20T09:30:35;60.22;;;36.63;;
47167;SDS011;32931;47.778;17.806;2022-11-20T09:33:01;61.45;;;38.58;;
47167;SDS011;32931;47.778;17.806;2022-11-20T09:35:30;59.47;;;37.20;;
47167;SDS011;32931;47.778;17.806;2022-11-20T09:37:56;58.92;;;36.15;;
47167;SDS011;32931;47.778;17.806;2022-11-20T09:40:23;61.85;;;37.67;;
47167;SDS011;32931;47.778;17.806;2022-11-20T09:43:05;60.03;;;39.00;;
47167;SDS011;32931;47.778;17.806;2022-11-20T09:54:17;61.50;;;39.05;;
47167;SDS011;32931;47.778;17.806;2022-11-20T09:56:55;61.30;;;37.70;;
47167;SDS011;32931;47.778;17.806;2022-11-20T10:04:53;65.80;;;39.45;;
47167;SDS011;32931;47.778;17.806;2022-11-20T10:10:26;62.30;;;39.70;;
47167;SDS011;32931;47.778;17.806;2022-11-20T10:18:11;62.13;;;39.53;;
47167;SDS011;32931;47.778;17.806;2022-11-20T10:21:18;63.42;;;38.53;;
47167;SDS011;32931;47.778;17.806;2022-11-20T10:29:16;65.17;;;39.23;;
47167;SDS011;32931;47.778;17.806;2022-11-20T10:31:46;60.35;;;39.28;;
47167;SDS011;32931;47.778;17.806;2022-11-20T10:37:00;68.43;;;40.17;;
47167;SDS011;32931;47.778;17.806;2022-11-20T10:42:31;64.57;;;39.70;;
47167;SDS011;32931;47.778;17.806;2022-11-20T10:47:49;61.28;;;38.42;;
47167;SDS011;32931;47.778;17.806;2022-11-20T10:50:20;59.92;;;38.15;;
47167;SDS011;32931;47.778;17.806;2022-11-20T10:58:10;63.08;;;38.80;;
47167;SDS011;32931;47.778;17.806;2022-11-20T11:00:51;59.22;;;38.55;;
47167;SDS011;32931;47.778;17.806;2022-11-20T11:03:22;61.90;;;39.53;;
47167;SDS011;32931;47.778;17.806;2022-11-20T11:08:34;62.20;;;38.85;;
47167;SDS011;32931;47.778;17.806;2022-11-20T11:11:25;65.22;;;38.85;;
47167;SDS011;32931;47.778;17.806;2022-11-20T11:13:52;60.95;;;38.95;;
47167;SDS011;32931;47.778;17.806;2022-11-20T11:16:29;62.20;;;40.28;;
47167;SDS011;32931;47.778;17.806;2022-11-20T11:19:05;57.97;;;37.75;;
47167;SDS011;32931;47.778;17.806;2022-11-20T11:21:32;61.92;;;38.75;;
47167;SDS011;32931;47.778;17.806;2022-11-20T11:24:04;57.88;;;36.50;;
47167;SDS011;32931;47.778;17.806;2022-11-20T11:26:30;61.60;;;38.43;;
47167;SDS011;32931;47.778;17.806;2022-11-20T11:28:58;61.00;;;39.33;;
47167;SDS011;32931;47.778;17.806;2022-11-20T11:31:34;59.80;;;38.67;;
47167;SDS011;32931;47.778;17.806;2022-11-20T11:34:07;60.22;;;38.72;;
47167;SDS011;32931;47.778;17.806;2022-11-20T11:36:37;57.75;;;37.65;;
47167;SDS011;32931;47.778;17.806;2022-11-20T11:39:04;60.97;;;37.78;;
47167;SDS011;32931;47.778;17.806;2022-11-20T11:41:36;58.92;;;37.45;;
47167;SDS011;32931;47.778;17.806;2022-11-20T11:47:02;60.03;;;37.40;;
47167;SDS011;32931;47.778;17.806;2022-11-20T11:49:30;54.47;;;34.45;;
47167;SDS011;32931;47.778;17.806;2022-11-20T11:57:10;55.28;;;35.95;;
47167;SDS011;32931;47.778;17.806;2022-11-20T12:02:36;56.92;;;35.78;;
47167;SDS011;32931;47.778;17.806;2022-11-20T12:07:47;59.90;;;37.85;;
47167;SDS011;32931;47.778;17.806;2022-11-20T12:10:35;59.25;;;37.47;;
47167;SDS011;32931;47.778;17.806;2022-11-20T12:16:04;53.92;;;36.17;;
47167;SDS011;32931;47.778;17.806;2022-11-20T12:18:30;55.30;;;36.63;;
47167;SDS011;32931;47.778;17.806;2022-11-20T12:36:56;56.22;;;35.35;;
47167;SDS011;32931;47.778;17.806;2022-11-20T12:39:35;58.22;;;35.97;;
47167;SDS011;32931;47.778;17.806;2022-11-20T12:58:50;53.72;;;34.83;;
47167;SDS011;32931;47.778;17.806;2022-11-20T13:01:42;52.00;;;34.33;;
47167;SDS011;32931;47.778;17.806;2022-11-20T13:04:18;56.10;;;35.35;;
47167;SDS011;32931;47.778;17.806;2022-11-20T13:06:53;52.50;;;35.08;;
47167;SDS011;32931;47.778;17.806;2022-11-20T13:09:20;54.40;;;35.22;;
47167;SDS011;32931;47.778;17.806;2022-11-20T13:17:12;56.03;;;36.78;;
47167;SDS011;32931;47.778;17.806;2022-11-20T13:19:47;55.95;;;36.08;;
47167;SDS011;32931;47.778;17.806;2022-11-20T13:22:26;53.28;;;34.80;;
47167;SDS011;32931;47.778;17.806;2022-11-20T13:24:54;54.00;;;36.22;;
47167;SDS011;32931;47.778;17.806;2022-11-20T13:27:23;56.72;;;36.65;;
47167;SDS011;32931;47.778;17.806;2022-11-20T13:32:47;57.97;;;36.17;;
47167;SDS011;32931;47.778;17.806;2022-11-20T13:35:29;52.97;;;35.70;;
47167;SDS011;32931;47.778;17.806;2022-11-20T13:38:03;55.10;;;36.47;;
47167;SDS011;32931;47.778;17.806;2022-11-20T13:40:32;57.85;;;35.75;;
47167;SDS011;32931;47.778;17.806;2022-11-20T13:45:41;54.75;;;35.15;;
47167;SDS011;32931;47.778;17.806;2022-11-20T13:48:19;56.60;;;36.65;;
47167;SDS011;32931;47.778;17.806;2022-11-20T13:53:42;56.60;;;36.92;;
47167;SDS011;32931;47.778;17.806;2022-11-20T13:58:52;53.90;;;35.20;;
47167;SDS011;32931;47.778;17.806;2022-11-20T14:01:28;54.92;;;34.90;;
47167;SDS011;32931;47.778;17.806;2022-11-20T14:06:32;57.13;;;35.42;;
47167;SDS011;32931;47.778;17.806;2022-11-20T14:11:56;53.15;;;35.28;;
47167;SDS011;32931;47.778;17.806;2022-11-20T14:14:24;54.10;;;34.67;;
47167;SDS011;32931;47.778;17.806;2022-11-20T14:19:48;55.40;;;35.60;;
47167;SDS011;32931;47.778;17.806;2022-11-20T14:22:23;55.00;;;35.28;;
47167;SDS011;32931;47.778;17.806;2022-11-20T14:25:01;52.20;;;35.47;;
47167;SDS011;32931;47.778;17.806;2022-11-20T14:27:27;53.00;;;36.33;;
47167;SDS011;32931;47.778;17.806;2022-11-20T14:29:54;58.03;;;37.00;;
47167;SDS011;32931;47.778;17.806;2022-11-20T14:32:21;58.25;;;37.10;;
47167;SDS011;32931;47.778;17.806;2022-11-20T14:34:53;61.08;;;37.42;;
47167;SDS011;32931;47.778;17.806;2022-11-20T14:37:21;63.53;;;40.13;;
47167;SDS011;32931;47.778;17.806;2022-11-20T14:39:51;67.15;;;41.55;;
47167;SDS011;32931;47.778;17.806;2022-11-20T14:42:20;58.35;;;37.78;;
47167;SDS011;32931;47.778;17.806;2022-11-20T14:44:49;60.45;;;38.05;;
47167;SDS011;32931;47.778;17.806;2022-11-20T14:47:21;61.55;;;36.30;;
47167;SDS011;32931;47.778;17.806;2022-11-20T14:49:50;58.63;;;37.50;;
47167;SDS011;32931;47.778;17.806;2022-11-20T14:52:19;61.72;;;38.30;;
47167;SDS011;32931;47.778;17.806;2022-11-20T14:54:50;63.83;;;39.63;;
47167;SDS011;32931;47.778;17.806;2022-11-20T14:57:31;71.15;;;40.95;;
47167;SDS011;32931;47.778;17.806;2022-11-20T15:02:44;74.85;;;46.65;;
47167;SDS011;32931;47.778;17.806;2022-11-20T15:05:12;69.60;;;45.65;;
47167;SDS011;32931;47.778;17.806;2022-11-20T15:07:40;61.97;;;38.95;;
47167;SDS011;32931;47.778;17.806;2022-11-20T15:12:54;72.95;;;42.88;;
47167;SDS011;32931;47.778;17.806;2022-11-20T15:15:25;70.30;;;42.42;;
47167;SDS011;32931;47.778;17.806;2022-11-20T15:17:51;72.55;;;43.30;;
47167;SDS011;32931;47.778;17.806;2022-11-20T15:20:17;69.07;;;42.03;;
47167;SDS011;32931;47.778;17.806;2022-11-20T15:22:44;69.03;;;41.00;;
47167;SDS011;32931;47.778;17.806;2022-11-20T15:25:13;67.22;;;39.53;;
47167;SDS011;32931;47.778;17.806;2022-11-20T15:27:41;73.82;;;41.20;;
47167;SDS011;32931;47.778;17.806;2022-11-20T15:30:12;66.47;;;38.47;;
47167;SDS011;32931;47.778;17.806;2022-11-20T15:32:43;67.45;;;39.03;;
47167;SDS011;32931;47.778;17.806;2022-11-20T15:35:10;65.38;;;39.30;;
47167;SDS011;32931;47.778;17.806;2022-11-20T15:37:36;58.33;;;36.03;;
47167;SDS011;32931;47.778;17.806;2022-11-20T15:40:03;62.80;;;39.58;;
47167;SDS011;32931;47.778;17.806;2022-11-20T15:42:30;54.58;;;35.40;;
47167;SDS011;32931;47.778;17.806;2022-11-20T15:44:56;56.58;;;37.85;;
47167;SDS011;32931;47.778;17.806;2022-11-20T15:47:24;57.53;;;35.85;;
47167;SDS011;32931;47.778;17.806;2022-11-20T15:49:53;64.47;;;37.78;;
47167;SDS011;32931;47.778;17.806;2022-11-20T15:52:19;68.75;;;38.35;;
47167;SDS011;32931;47.778;17.806;2022-11-20T15:54:45;63.70;;;38.08;;
47167;SDS011;32931;47.778;17.806;2022-11-20T15:57:11;59.13;;;38.47;;
47167;SDS011;32931;47.778;17.806;2022-11-20T15:59:38;60.40;;;36.28;;
47167;SDS011;32931;47.778;17.806;2022-11-20T16:02:13;63.30;;;37.38;;
47167;SDS011;32931;47.778;17.806;2022-11-20T16:04:40;62.83;;;38.50;;
47167;SDS011;32931;47.778;17.806;2022-11-20T16:07:07;60.40;;;38.63;;
47167;SDS011;32931;47.778;17.806;2022-11-20T16:09:33;61.50;;;36.13;;
47167;SDS011;32931;47.778;17.806;2022-11-20T16:11:59;62.38;;;39.67;;
47167;SDS011;32931;47.778;17.806;2022-11-20T16:14:26;60.78;;;36.08;;
47167;SDS011;32931;47.778;17.806;2022-11-20T16:17:11;61.72;;;37.00;;
47167;SDS011;32931;47.778;17.806;2022-11-20T16:19:38;69.57;;;42.38;;
47167;SDS011;32931;47.778;17.806;2022-11-20T16:22:04;65.07;;;40.13;;
47167;SDS011;32931;47.778;17.806;2022-11-20T16:24:30;64.55;;;38.75;;
47167;SDS011;32931;47.778;17.806;2022-11-20T16:26:56;61.60;;;37.95;;
47167;SDS011;32931;47.778;17.806;2022-11-20T16:29:22;58.88;;;38.17;;
47167;SDS011;32931;47.778;17.806;2022-11-20T16:31:48;56.97;;;36.03;;
47167;SDS011;32931;47.778;17.806;2022-11-20T16:34:15;62.33;;;37.78;;
47167;SDS011;32931;47.778;17.806;2022-11-20T16:36:42;60.97;;;37.58;;